createdAt,value
2023-01-29T00:03:32.031Z,5.90
2023-01-29T00:08:52.924Z,3.25
2023-01-29T00:14:13.841Z,4.55
2023-01-29T00:19:34.715Z,5.95
2023-01-29T00:24:55.703Z,6.30
2023-01-29T00:30:19.702Z,5.60
2023-01-29T00:35:41.495Z,4.55
2023-01-29T00:41:31.379Z,3.33
2023-01-29T00:46:52.279Z,3.10
2023-01-29T00:52:25.510Z,4.63
2023-01-29T00:57:46.613Z,4.30
2023-01-29T01:03:07.755Z,4.60
2023-01-29T01:08:47.669Z,4.55
2023-01-29T01:14:08.490Z,3.00
2023-01-29T01:19:29.480Z,4.03
2023-01-29T01:24:50.434Z,4.80
2023-01-29T01:30:13.053Z,4.93
2023-01-29T01:35:34.204Z,5.47
2023-01-29T01:40:54.857Z,5.25
2023-01-29T01:46:15.731Z,6.95
2023-01-29T01:51:39.016Z,4.55
2023-01-29T01:57:09.406Z,4.38
2023-01-29T02:02:48.477Z,7.28
2023-01-29T02:08:28.689Z,9.00
2023-01-29T02:13:53.807Z,9.60
2023-01-29T02:19:34.188Z,6.45
2023-01-29T02:25:29.784Z,8.13
2023-01-29T02:31:03.161Z,7.68
2023-01-29T02:36:46.092Z,9.88
2023-01-29T02:42:21.849Z,10.30
2023-01-29T02:47:52.969Z,13.60
2023-01-29T02:53:32.465Z,10.02
2023-01-29T02:58:59.110Z,8.85
2023-01-29T03:04:24.552Z,8.02
2023-01-29T03:09:48.646Z,8.23
2023-01-29T03:15:11.646Z,8.87
2023-01-29T03:26:16.779Z,8.48
2023-01-29T03:31:56.950Z,7.18
2023-01-29T03:37:35.016Z,6.35
2023-01-29T03:43:11.071Z,9.57
2023-01-29T03:48:36.597Z,7.40
2023-01-29T03:54:18.961Z,8.60
2023-01-29T03:59:54.937Z,8.45
2023-01-29T04:05:45.551Z,7.47
2023-01-29T04:11:15.453Z,8.80
2023-01-29T04:16:42.060Z,8.75
2023-01-29T04:22:37.035Z,10.40
2023-01-29T04:28:10.651Z,7.28
2023-01-29T04:33:54.973Z,6.93
2023-01-29T04:39:30.375Z,6.38
2023-01-29T04:44:58.570Z,8.57
2023-01-29T04:50:39.521Z,7.38
2023-01-29T04:56:32.474Z,8.27
2023-01-29T05:02:06.890Z,7.53
2023-01-29T05:07:27.519Z,8.82
2023-01-29T05:12:55.082Z,6.97
2023-01-29T05:18:16.222Z,8.10
2023-01-29T05:23:36.804Z,7.28
2023-01-29T05:28:57.829Z,7.97
2023-01-29T05:34:18.526Z,6.22
2023-01-29T05:39:39.420Z,6.32
2023-01-29T05:45:00.401Z,7.38
2023-01-29T05:50:21.575Z,6.45
2023-01-29T05:55:48.482Z,5.30
2023-01-29T06:01:14.458Z,4.78
2023-01-29T06:06:36.218Z,6.07
2023-01-29T06:11:57.683Z,4.18
2023-01-29T06:17:18.268Z,5.93
2023-01-29T06:22:38.972Z,4.78
2023-01-29T06:27:59.976Z,5.00
2023-01-29T06:33:20.824Z,5.50
2023-01-29T06:38:41.988Z,4.50
2023-01-29T06:44:02.794Z,6.97
2023-01-29T06:49:23.820Z,5.20
2023-01-29T06:54:44.596Z,5.15
2023-01-29T07:00:06.630Z,6.32
2023-01-29T07:05:27.621Z,4.75
2023-01-29T07:10:49.278Z,5.93
2023-01-29T07:16:10.379Z,3.63
2023-01-29T07:21:31.107Z,5.20
2023-01-29T07:26:52.022Z,4.30
2023-01-29T07:32:13.019Z,6.07
2023-01-29T07:37:33.672Z,4.55
2023-01-29T07:42:59.406Z,4.47
2023-01-29T07:48:20.945Z,3.78
2023-01-29T07:53:42.150Z,4.45
2023-01-29T07:59:03.386Z,5.40
2023-01-29T08:04:24.651Z,4.53
2023-01-29T08:09:48.022Z,5.80
2023-01-29T08:15:09.472Z,7.93
2023-01-29T08:20:30.511Z,5.32
2023-01-29T08:25:51.243Z,5.72
2023-01-29T08:31:18.228Z,4.68
2023-01-29T08:36:39.355Z,3.58
2023-01-29T08:41:59.918Z,3.03
2023-01-29T08:47:20.470Z,4.28
2023-01-29T08:52:41.252Z,5.85
2023-01-29T08:58:04.145Z,3.55
2023-01-29T09:03:25.026Z,5.15
2023-01-29T09:08:45.758Z,5.30
2023-01-29T09:14:06.363Z,6.07
2023-01-29T09:19:27.089Z,8.40
2023-01-29T09:24:47.886Z,5.85
2023-01-29T09:30:09.232Z,4.95
2023-01-29T09:35:30.166Z,6.65
2023-01-29T09:40:54.889Z,3.28
2023-01-29T09:46:23.022Z,5.10
2023-01-29T09:51:46.803Z,4.75
2023-01-29T09:57:08.012Z,4.55
2023-01-29T10:02:53.607Z,7.55
2023-01-29T10:08:46.769Z,4.07
2023-01-29T10:14:31.188Z,6.32
2023-01-29T10:25:20.437Z,5.10
2023-01-29T10:30:41.704Z,4.68
2023-01-29T10:36:04.895Z,4.53
2023-01-29T10:41:42.494Z,5.18
2023-01-29T10:47:12.385Z,7.60
2023-01-29T10:52:55.930Z,5.50
2023-01-29T10:58:30.018Z,5.35
2023-01-29T11:04:01.939Z,6.00
2023-01-29T11:15:07.207Z,5.97
2023-01-29T11:20:28.356Z,7.88
2023-01-29T11:25:52.876Z,8.48
2023-01-29T11:36:39.769Z,6.78
2023-01-29T11:42:04.642Z,6.68
2023-01-29T11:47:29.386Z,6.78
2023-01-29T11:52:50.311Z,6.97
2023-01-29T11:58:17.975Z,6.72
2023-01-29T12:03:41.659Z,7.32
2023-01-29T12:09:03.174Z,9.02
2023-01-29T12:14:27.231Z,8.27
2023-01-29T12:19:56.551Z,8.27
2023-01-29T12:25:45.388Z,7.85
2023-01-29T12:31:25.013Z,8.82
2023-01-29T12:36:55.005Z,7.05
2023-01-29T12:42:19.275Z,6.63
2023-01-29T12:47:43.083Z,6.88
2023-01-29T12:53:10.000Z,7.70
2023-01-29T12:58:35.161Z,7.10
2023-01-29T13:04:26.457Z,8.15
2023-01-29T13:09:50.803Z,11.07
2023-01-29T13:15:25.386Z,15.38
2023-01-29T13:20:46.499Z,9.95
2023-01-29T13:26:07.691Z,8.88
2023-01-29T13:31:31.647Z,10.27
2023-01-29T13:36:54.582Z,11.23
2023-01-29T13:42:37.547Z,9.45
2023-01-29T13:48:22.347Z,7.60
2023-01-29T13:53:43.586Z,9.00
2023-01-29T13:59:05.532Z,10.68
2023-01-29T14:04:28.398Z,8.98
2023-01-29T14:09:49.307Z,9.20
2023-01-29T14:15:21.248Z,9.10
2023-01-29T14:20:48.650Z,9.95
2023-01-29T14:26:32.301Z,10.85
2023-01-29T14:32:14.735Z,10.63
2023-01-29T14:37:37.242Z,8.75
2023-01-29T14:43:01.955Z,9.10
2023-01-29T14:48:35.213Z,10.98
2023-01-29T14:54:01.772Z,11.02
2023-01-29T14:59:27.074Z,11.27
2023-01-29T15:04:52.441Z,10.27
2023-01-29T15:10:40.533Z,11.38
2023-01-29T15:16:09.310Z,9.35
2023-01-29T15:21:30.799Z,9.48
2023-01-29T15:26:51.924Z,9.85
2023-01-29T15:32:29.725Z,10.68
2023-01-29T15:38:01.587Z,10.98
2023-01-29T15:43:26.873Z,9.10
2023-01-29T15:48:49.079Z,11.52
2023-01-29T15:54:10.964Z,12.90
2023-01-29T15:59:34.742Z,11.68
2023-01-29T16:04:55.787Z,14.13
2023-01-29T16:10:18.958Z,14.25
2023-01-29T16:15:40.896Z,12.40
2023-01-29T16:21:05.436Z,16.58
2023-01-29T16:31:48.195Z,11.50
2023-01-29T16:37:30.336Z,11.45
2023-01-29T16:42:52.762Z,13.68
2023-01-29T16:48:26.526Z,14.55
2023-01-29T16:53:59.942Z,14.07
2023-01-29T16:59:26.860Z,14.52
2023-01-29T17:04:48.166Z,15.85
2023-01-29T17:10:16.895Z,16.40
2023-01-29T17:15:43.776Z,12.25
2023-01-29T17:21:05.052Z,12.88
2023-01-29T17:26:26.473Z,13.82
2023-01-29T17:31:47.538Z,15.02
2023-01-29T17:37:12.666Z,16.42
2023-01-29T17:42:33.797Z,16.27
2023-01-29T17:47:54.625Z,17.85
2023-01-29T17:53:15.964Z,17.58
2023-01-29T17:58:37.109Z,14.75
2023-01-29T18:03:57.906Z,17.52
2023-01-29T18:09:20.662Z,13.15
2023-01-29T18:14:41.746Z,12.50
2023-01-29T18:20:03.106Z,13.45
2023-01-29T18:25:25.722Z,13.48
2023-01-29T18:30:47.559Z,12.48
2023-01-29T18:36:08.893Z,15.32
2023-01-29T18:41:29.794Z,12.27
2023-01-29T18:46:50.633Z,12.30
2023-01-29T18:52:11.369Z,12.73
2023-01-29T18:58:25.089Z,15.50
2023-01-29T19:03:14.376Z,11.88
2023-01-29T19:08:35.144Z,18.27
2023-01-29T19:13:55.992Z,15.80
2023-01-29T19:19:16.862Z,16.63
2023-01-29T19:24:39.109Z,13.70
2023-01-29T19:30:00.516Z,11.60
2023-01-29T19:35:21.814Z,11.25
2023-01-29T19:40:42.905Z,11.25
2023-01-29T19:46:03.910Z,10.63
2023-01-29T19:51:24.703Z,14.15
2023-01-29T19:56:45.416Z,10.63
2023-01-29T20:02:06.550Z,13.55
2023-01-29T20:07:27.751Z,10.30
2023-01-29T20:12:48.936Z,11.73
2023-01-29T20:18:12.105Z,11.23
2023-01-29T20:23:38.171Z,11.98
2023-01-29T20:28:59.268Z,10.82
2023-01-29T20:34:20.071Z,12.38
2023-01-29T20:39:40.795Z,14.48
2023-01-29T20:45:01.644Z,11.20
2023-01-29T20:50:22.284Z,16.52
2023-01-29T20:55:43.429Z,10.88
2023-01-29T21:01:11.674Z,11.75
2023-01-29T21:06:32.447Z,13.57
2023-01-29T21:11:53.113Z,11.68
2023-01-29T21:17:13.632Z,12.88
2023-01-29T21:22:34.634Z,12.90
2023-01-29T21:27:55.266Z,14.23
2023-01-29T21:33:16.027Z,12.35
2023-01-29T21:38:37.059Z,13.07
2023-01-29T21:43:57.998Z,15.27
2023-01-29T21:49:19.005Z,15.25
2023-01-29T21:54:40.104Z,13.00
2023-01-29T22:00:02.257Z,13.52
2023-01-29T22:05:26.728Z,16.52
2023-01-29T22:10:47.934Z,18.83
2023-01-29T22:16:09.135Z,13.90
2023-01-29T22:21:30.169Z,12.43
2023-01-29T22:26:51.298Z,14.13
2023-01-29T22:32:13.310Z,15.05
2023-01-29T22:37:33.955Z,14.95
2023-01-29T22:42:54.684Z,14.48
2023-01-29T22:48:15.417Z,15.55
2023-01-29T22:53:44.247Z,14.50
2023-01-29T22:59:05.460Z,18.10
2023-01-29T23:04:26.400Z,12.65
2023-01-29T23:09:46.954Z,11.50
2023-01-29T23:15:07.982Z,12.30
2023-01-29T23:20:28.829Z,16.02
2023-01-29T23:26:08.552Z,11.57
2023-01-29T23:31:30.056Z,12.35
2023-01-29T23:36:50.896Z,12.05
2023-01-29T23:42:11.649Z,12.57
2023-01-29T23:47:32.513Z,12.75
2023-01-29T23:52:53.005Z,12.43
2023-01-29T23:58:13.690Z,13.27
